sensor_id;sensor_type;location;lat;lon;timestamp;P1;durP1;ratioP1;P2;durP2;ratioP2
2313;SDS011;42279;51.388;7.000;2022-12-07T00:00:38;38.47;;;25.33;;
2313;SDS011;42279;51.388;7.000;2022-12-07T00:03:03;33.57;;;27.17;;
2313;SDS011;42279;51.388;7.000;2022-12-07T00:05:29;32.40;;;25.17;;
2313;SDS011;42279;51.388;7.000;2022-12-07T00:07:55;33.60;;;26.97;;
2313;SDS011;42279;51.388;7.000;2022-12-07T00:10:21;31.27;;;23.13;;
2313;SDS011;42279;51.388;7.000;2022-12-07T00:12:47;34.07;;;25.77;;
2313;SDS011;42279;51.388;7.000;2022-12-07T00:15:15;35.40;;;26.92;;
2313;SDS011;42279;51.388;7.000;2022-12-07T00:17:41;37.97;;;27.55;;
2313;SDS011;42279;51.388;7.000;2022-12-07T00:20:07;40.60;;;25.37;;
2313;SDS011;42279;51.388;7.000;2022-12-07T00:22:33;36.17;;;27.63;;
2313;SDS011;42279;51.388;7.000;2022-12-07T00:24:59;43.53;;;26.77;;
2313;SDS011;42279;51.388;7.000;2022-12-07T00:27:26;37.33;;;26.67;;
2313;SDS011;42279;51.388;7.000;2022-12-07T00:29:52;35.65;;;24.85;;
2313;SDS011;42279;51.388;7.000;2022-12-07T00:32:18;33.83;;;25.07;;
2313;SDS011;42279;51.388;7.000;2022-12-07T00:34:44;36.80;;;27.13;;
2313;SDS011;42279;51.388;7.000;2022-12-07T00:37:10;32.90;;;24.55;;
2313;SDS011;42279;51.388;7.000;2022-12-07T00:39:37;31.25;;;24.60;;
2313;SDS011;42279;51.388;7.000;2022-12-07T00:42:03;37.17;;;27.83;;
2313;SDS011;42279;51.388;7.000;2022-12-07T00:44:29;33.95;;;24.77;;
2313;SDS011;42279;51.388;7.000;2022-12-07T00:46:55;43.17;;;25.60;;
2313;SDS011;42279;51.388;7.000;2022-12-07T00:49:21;34.57;;;25.57;;
2313;SDS011;42279;51.388;7.000;2022-12-07T00:51:48;39.22;;;26.85;;
2313;SDS011;42279;51.388;7.000;2022-12-07T00:54:14;30.80;;;23.23;;
2313;SDS011;42279;51.388;7.000;2022-12-07T00:56:40;30.17;;;24.13;;
2313;SDS011;42279;51.388;7.000;2022-12-07T00:59:06;28.33;;;22.40;;
2313;SDS011;42279;51.388;7.000;2022-12-07T01:01:33;35.15;;;27.17;;
2313;SDS011;42279;51.388;7.000;2022-12-07T01:03:59;33.20;;;23.83;;
2313;SDS011;42279;51.388;7.000;2022-12-07T01:06:28;27.52;;;24.10;;
2313;SDS011;42279;51.388;7.000;2022-12-07T01:08:55;32.40;;;25.58;;
2313;SDS011;42279;51.388;7.000;2022-12-07T01:11:22;35.25;;;25.63;;
2313;SDS011;42279;51.388;7.000;2022-12-07T01:13:52;29.25;;;23.27;;
2313;SDS011;42279;51.388;7.000;2022-12-07T01:16:18;26.87;;;22.53;;
2313;SDS011;42279;51.388;7.000;2022-12-07T01:18:48;23.73;;;20.58;;
2313;SDS011;42279;51.388;7.000;2022-12-07T01:21:16;29.40;;;22.20;;
2313;SDS011;42279;51.388;7.000;2022-12-07T01:23:42;28.98;;;22.45;;
2313;SDS011;42279;51.388;7.000;2022-12-07T01:26:12;29.33;;;23.73;;
2313;SDS011;42279;51.388;7.000;2022-12-07T01:28:38;27.83;;;21.23;;
2313;SDS011;42279;51.388;7.000;2022-12-07T01:31:08;25.50;;;21.70;;
2313;SDS011;42279;51.388;7.000;2022-12-07T01:33:36;29.50;;;23.30;;
2313;SDS011;42279;51.388;7.000;2022-12-07T01:38:32;31.33;;;24.33;;
2313;SDS011;42279;51.388;7.000;2022-12-07T01:40:58;29.67;;;23.55;;
2313;SDS011;42279;51.388;7.000;2022-12-07T01:43:25;29.20;;;23.70;;
2313;SDS011;42279;51.388;7.000;2022-12-07T01:45:52;28.95;;;22.92;;
2313;SDS011;42279;51.388;7.000;2022-12-07T01:48:19;31.77;;;22.40;;
2313;SDS011;42279;51.388;7.000;2022-12-07T01:50:47;29.55;;;21.85;;
2313;SDS011;42279;51.388;7.000;2022-12-07T01:53:14;29.80;;;22.73;;
2313;SDS011;42279;51.388;7.000;2022-12-07T01:55:41;32.58;;;22.55;;
2313;SDS011;42279;51.388;7.000;2022-12-07T01:58:08;28.08;;;23.45;;
2313;SDS011;42279;51.388;7.000;2022-12-07T02:00:35;26.10;;;22.23;;
2313;SDS011;42279;51.388;7.000;2022-12-07T02:03:04;28.05;;;23.73;;
2313;SDS011;42279;51.388;7.000;2022-12-07T02:05:31;26.70;;;21.08;;
2313;SDS011;42279;51.388;7.000;2022-12-07T02:07:57;30.45;;;24.17;;
2313;SDS011;42279;51.388;7.000;2022-12-07T02:10:28;29.20;;;24.65;;
2313;SDS011;42279;51.388;7.000;2022-12-07T02:12:55;34.42;;;24.10;;
2313;SDS011;42279;51.388;7.000;2022-12-07T02:15:22;30.67;;;22.65;;
2313;SDS011;42279;51.388;7.000;2022-12-07T02:23:09;28.10;;;19.73;;
2313;SDS011;42279;51.388;7.000;2022-12-07T02:31:01;30.60;;;22.45;;
2313;SDS011;42279;51.388;7.000;2022-12-07T02:33:29;33.08;;;23.15;;
2313;SDS011;42279;51.388;7.000;2022-12-07T02:41:07;31.20;;;23.65;;
2313;SDS011;42279;51.388;7.000;2022-12-07T02:43:46;30.40;;;19.77;;
2313;SDS011;42279;51.388;7.000;2022-12-07T02:46:14;27.00;;;20.23;;
2313;SDS011;42279;51.388;7.000;2022-12-07T02:48:41;32.13;;;23.58;;
2313;SDS011;42279;51.388;7.000;2022-12-07T02:51:08;35.22;;;23.85;;
2313;SDS011;42279;51.388;7.000;2022-12-07T02:53:35;29.57;;;21.53;;
2313;SDS011;42279;51.388;7.000;2022-12-07T03:01:16;27.50;;;22.17;;
2313;SDS011;42279;51.388;7.000;2022-12-07T03:03:44;34.10;;;24.80;;
2313;SDS011;42279;51.388;7.000;2022-12-07T03:06:20;33.42;;;24.30;;
2313;SDS011;42279;51.388;7.000;2022-12-07T03:11:15;30.67;;;23.35;;
2313;SDS011;42279;51.388;7.000;2022-12-07T03:13:47;31.38;;;21.60;;
2313;SDS011;42279;51.388;7.000;2022-12-07T03:16:15;29.23;;;23.45;;
2313;SDS011;42279;51.388;7.000;2022-12-07T03:18:51;31.73;;;22.55;;
2313;SDS011;42279;51.388;7.000;2022-12-07T03:21:19;29.25;;;21.90;;
2313;SDS011;42279;51.388;7.000;2022-12-07T03:23:47;33.35;;;23.75;;
2313;SDS011;42279;51.388;7.000;2022-12-07T03:26:14;29.17;;;21.75;;
2313;SDS011;42279;51.388;7.000;2022-12-07T03:28:43;30.77;;;23.10;;
2313;SDS011;42279;51.388;7.000;2022-12-07T03:31:17;28.38;;;22.52;;
2313;SDS011;42279;51.388;7.000;2022-12-07T03:34:31;32.70;;;22.80;;
2313;SDS011;42279;51.388;7.000;2022-12-07T03:41:47;35.38;;;23.80;;
2313;SDS011;42279;51.388;7.000;2022-12-07T03:44:14;28.67;;;21.27;;
2313;SDS011;42279;51.388;7.000;2022-12-07T03:49:12;31.80;;;23.77;;
2313;SDS011;42279;51.388;7.000;2022-12-07T03:51:42;33.78;;;24.50;;
2313;SDS011;42279;51.388;7.000;2022-12-07T03:54:17;38.08;;;25.48;;
2313;SDS011;42279;51.388;7.000;2022-12-07T03:56:44;34.65;;;22.70;;
2313;SDS011;42279;51.388;7.000;2022-12-07T03:59:11;34.28;;;23.15;;
2313;SDS011;42279;51.388;7.000;2022-12-07T04:01:40;22.48;;;15.05;;
2313;SDS011;42279;51.388;7.000;2022-12-07T04:04:07;29.33;;;21.80;;
2313;SDS011;42279;51.388;7.000;2022-12-07T04:06:33;24.63;;;18.17;;
2313;SDS011;42279;51.388;7.000;2022-12-07T04:08:59;29.23;;;20.60;;
2313;SDS011;42279;51.388;7.000;2022-12-07T04:11:25;30.48;;;20.05;;
2313;SDS011;42279;51.388;7.000;2022-12-07T04:13:51;29.77;;;21.97;;
2313;SDS011;42279;51.388;7.000;2022-12-07T04:16:35;36.53;;;22.67;;
2313;SDS011;42279;51.388;7.000;2022-12-07T04:19:01;28.38;;;21.70;;
2313;SDS011;42279;51.388;7.000;2022-12-07T04:21:27;31.13;;;18.67;;
2313;SDS011;42279;51.388;7.000;2022-12-07T04:23:53;30.40;;;20.60;;
2313;SDS011;42279;51.388;7.000;2022-12-07T04:26:19;29.47;;;20.20;;
2313;SDS011;42279;51.388;7.000;2022-12-07T04:28:45;33.28;;;22.60;;
2313;SDS011;42279;51.388;7.000;2022-12-07T04:31:11;31.10;;;21.13;;
2313;SDS011;42279;51.388;7.000;2022-12-07T04:33:37;30.97;;;19.93;;
2313;SDS011;42279;51.388;7.000;2022-12-07T04:36:03;30.85;;;20.17;;
2313;SDS011;42279;51.388;7.000;2022-12-07T04:38:29;26.60;;;20.25;;
2313;SDS011;42279;51.388;7.000;2022-12-07T04:40:55;23.37;;;17.10;;
2313;SDS011;42279;51.388;7.000;2022-12-07T04:43:22;28.52;;;20.67;;
2313;SDS011;42279;51.388;7.000;2022-12-07T04:45:48;29.52;;;20.23;;
2313;SDS011;42279;51.388;7.000;2022-12-07T04:48:15;29.27;;;20.42;;
2313;SDS011;42279;51.388;7.000;2022-12-07T04:50:41;28.80;;;20.92;;
2313;SDS011;42279;51.388;7.000;2022-12-07T04:53:07;32.90;;;22.27;;
2313;SDS011;42279;51.388;7.000;2022-12-07T04:55:33;33.15;;;22.88;;
2313;SDS011;42279;51.388;7.000;2022-12-07T04:57:59;33.67;;;23.37;;
2313;SDS011;42279;51.388;7.000;2022-12-07T05:00:25;25.73;;;18.05;;
2313;SDS011;42279;51.388;7.000;2022-12-07T05:02:51;38.00;;;22.80;;
2313;SDS011;42279;51.388;7.000;2022-12-07T05:05:17;33.03;;;21.27;;
2313;SDS011;42279;51.388;7.000;2022-12-07T05:07:43;30.30;;;21.23;;
2313;SDS011;42279;51.388;7.000;2022-12-07T05:10:09;29.17;;;22.67;;
2313;SDS011;42279;51.388;7.000;2022-12-07T05:12:35;31.45;;;23.05;;
2313;SDS011;42279;51.388;7.000;2022-12-07T05:15:01;33.40;;;22.33;;
2313;SDS011;42279;51.388;7.000;2022-12-07T05:17:27;30.80;;;22.88;;
2313;SDS011;42279;51.388;7.000;2022-12-07T05:19:53;33.87;;;22.70;;
2313;SDS011;42279;51.388;7.000;2022-12-07T05:22:19;29.40;;;20.27;;
2313;SDS011;42279;51.388;7.000;2022-12-07T05:24:46;29.25;;;21.35;;
2313;SDS011;42279;51.388;7.000;2022-12-07T05:27:12;37.13;;;23.13;;
2313;SDS011;42279;51.388;7.000;2022-12-07T05:29:38;30.50;;;21.65;;
2313;SDS011;42279;51.388;7.000;2022-12-07T05:32:04;29.43;;;18.60;;
2313;SDS011;42279;51.388;7.000;2022-12-07T05:34:30;27.33;;;19.30;;
2313;SDS011;42279;51.388;7.000;2022-12-07T05:36:56;28.43;;;21.30;;
2313;SDS011;42279;51.388;7.000;2022-12-07T05:39:22;27.25;;;20.10;;
2313;SDS011;42279;51.388;7.000;2022-12-07T05:41:48;27.07;;;19.50;;
2313;SDS011;42279;51.388;7.000;2022-12-07T05:44:33;34.67;;;21.92;;
2313;SDS011;42279;51.388;7.000;2022-12-07T05:46:59;30.63;;;20.53;;
2313;SDS011;42279;51.388;7.000;2022-12-07T05:49:24;26.73;;;19.77;;
2313;SDS011;42279;51.388;7.000;2022-12-07T05:51:50;23.07;;;17.27;;
2313;SDS011;42279;51.388;7.000;2022-12-07T05:54:16;26.47;;;18.97;;
2313;SDS011;42279;51.388;7.000;2022-12-07T05:56:42;31.23;;;19.53;;
2313;SDS011;42279;51.388;7.000;2022-12-07T05:59:09;26.48;;;19.45;;
2313;SDS011;42279;51.388;7.000;2022-12-07T06:01:55;27.63;;;21.25;;
2313;SDS011;42279;51.388;7.000;2022-12-07T06:04:22;24.77;;;16.80;;
2313;SDS011;42279;51.388;7.000;2022-12-07T06:06:48;25.67;;;19.33;;
2313;SDS011;42279;51.388;7.000;2022-12-07T06:09:16;27.65;;;18.27;;
2313;SDS011;42279;51.388;7.000;2022-12-07T06:11:43;26.20;;;18.67;;
2313;SDS011;42279;51.388;7.000;2022-12-07T06:14:28;23.08;;;17.92;;
2313;SDS011;42279;51.388;7.000;2022-12-07T06:16:56;29.20;;;19.73;;
2313;SDS011;42279;51.388;7.000;2022-12-07T06:19:22;24.48;;;18.55;;
2313;SDS011;42279;51.388;7.000;2022-12-07T06:21:48;31.17;;;19.52;;
2313;SDS011;42279;51.388;7.000;2022-12-07T06:24:15;27.27;;;18.10;;
2313;SDS011;42279;51.388;7.000;2022-12-07T06:26:41;21.33;;;15.23;;
2313;SDS011;42279;51.388;7.000;2022-12-07T06:29:07;30.70;;;20.77;;
2313;SDS011;42279;51.388;7.000;2022-12-07T06:31:34;29.50;;;20.00;;
2313;SDS011;42279;51.388;7.000;2022-12-07T06:34:01;26.10;;;19.10;;
2313;SDS011;42279;51.388;7.000;2022-12-07T06:36:28;22.40;;;16.90;;
2313;SDS011;42279;51.388;7.000;2022-12-07T06:38:54;29.70;;;17.10;;
2313;SDS011;42279;51.388;7.000;2022-12-07T06:41:20;25.92;;;19.23;;
2313;SDS011;42279;51.388;7.000;2022-12-07T06:43:46;27.92;;;17.38;;
2313;SDS011;42279;51.388;7.000;2022-12-07T06:46:12;27.17;;;17.90;;
2313;SDS011;42279;51.388;7.000;2022-12-07T06:48:42;21.58;;;15.48;;
2313;SDS011;42279;51.388;7.000;2022-12-07T06:51:08;26.75;;;17.98;;
2313;SDS011;42279;51.388;7.000;2022-12-07T06:53:34;18.98;;;15.00;;
2313;SDS011;42279;51.388;7.000;2022-12-07T06:56:00;30.45;;;18.25;;
2313;SDS011;42279;51.388;7.000;2022-12-07T06:58:26;21.92;;;17.15;;
2313;SDS011;42279;51.388;7.000;2022-12-07T07:00:52;23.52;;;17.42;;
2313;SDS011;42279;51.388;7.000;2022-12-07T07:03:18;23.88;;;16.55;;
2313;SDS011;42279;51.388;7.000;2022-12-07T07:05:45;19.70;;;15.25;;
2313;SDS011;42279;51.388;7.000;2022-12-07T07:08:14;19.67;;;15.70;;
2313;SDS011;42279;51.388;7.000;2022-12-07T07:10:40;21.00;;;17.42;;
2313;SDS011;42279;51.388;7.000;2022-12-07T07:13:06;17.85;;;13.90;;
2313;SDS011;42279;51.388;7.000;2022-12-07T07:15:33;22.33;;;14.93;;
2313;SDS011;42279;51.388;7.000;2022-12-07T07:17:59;21.43;;;16.27;;
2313;SDS011;42279;51.388;7.000;2022-12-07T07:20:25;27.45;;;15.27;;
2313;SDS011;42279;51.388;7.000;2022-12-07T07:22:53;24.50;;;15.18;;
2313;SDS011;42279;51.388;7.000;2022-12-07T07:25:19;24.53;;;16.33;;
2313;SDS011;42279;51.388;7.000;2022-12-07T07:27:45;21.73;;;16.20;;
2313;SDS011;42279;51.388;7.000;2022-12-07T07:30:11;20.20;;;15.57;;
2313;SDS011;42279;51.388;7.000;2022-12-07T07:32:37;17.95;;;13.90;;
2313;SDS011;42279;51.388;7.000;2022-12-07T07:35:04;23.97;;;14.97;;
2313;SDS011;42279;51.388;7.000;2022-12-07T07:37:39;27.80;;;16.85;;
2313;SDS011;42279;51.388;7.000;2022-12-07T07:40:05;18.73;;;14.97;;
2313;SDS011;42279;51.388;7.000;2022-12-07T07:42:31;18.50;;;14.45;;
2313;SDS011;42279;51.388;7.000;2022-12-07T07:44:57;26.63;;;18.05;;
2313;SDS011;42279;51.388;7.000;2022-12-07T07:47:23;23.52;;;17.33;;
2313;SDS011;42279;51.388;7.000;2022-12-07T07:49:49;26.45;;;17.80;;
2313;SDS011;42279;51.388;7.000;2022-12-07T07:52:16;22.60;;;15.80;;
2313;SDS011;42279;51.388;7.000;2022-12-07T07:54:42;21.20;;;16.20;;
2313;SDS011;42279;51.388;7.000;2022-12-07T07:57:08;22.07;;;16.77;;
2313;SDS011;42279;51.388;7.000;2022-12-07T07:59:33;23.53;;;15.53;;
2313;SDS011;42279;51.388;7.000;2022-12-07T08:02:02;23.60;;;16.38;;
2313;SDS011;42279;51.388;7.000;2022-12-07T08:04:28;16.93;;;12.73;;
2313;SDS011;42279;51.388;7.000;2022-12-07T08:06:54;18.70;;;15.77;;
2313;SDS011;42279;51.388;7.000;2022-12-07T08:09:20;24.33;;;14.98;;
2313;SDS011;42279;51.388;7.000;2022-12-07T08:11:46;19.10;;;14.27;;
2313;SDS011;42279;51.388;7.000;2022-12-07T08:14:15;17.40;;;13.73;;
2313;SDS011;42279;51.388;7.000;2022-12-07T08:16:41;19.63;;;14.10;;
2313;SDS011;42279;51.388;7.000;2022-12-07T08:19:07;14.98;;;12.65;;
2313;SDS011;42279;51.388;7.000;2022-12-07T08:21:33;14.57;;;12.70;;
2313;SDS011;42279;51.388;7.000;2022-12-07T08:23:59;17.50;;;12.70;;
2313;SDS011;42279;51.388;7.000;2022-12-07T08:26:25;15.30;;;13.00;;
2313;SDS011;42279;51.388;7.000;2022-12-07T08:28:52;14.55;;;12.07;;
2313;SDS011;42279;51.388;7.000;2022-12-07T08:31:18;13.65;;;12.13;;
2313;SDS011;42279;51.388;7.000;2022-12-07T08:33:45;15.50;;;11.88;;
2313;SDS011;42279;51.388;7.000;2022-12-07T08:36:12;12.18;;;10.88;;
2313;SDS011;42279;51.388;7.000;2022-12-07T08:38:39;13.15;;;11.63;;
2313;SDS011;42279;51.388;7.000;2022-12-07T08:41:05;16.17;;;12.27;;
2313;SDS011;42279;51.388;7.000;2022-12-07T08:43:35;12.30;;;11.20;;
2313;SDS011;42279;51.388;7.000;2022-12-07T08:48:27;13.20;;;11.63;;
2313;SDS011;42279;51.388;7.000;2022-12-07T08:50:55;11.90;;;10.70;;
2313;SDS011;42279;51.388;7.000;2022-12-07T08:53:21;15.50;;;11.17;;
2313;SDS011;42279;51.388;7.000;2022-12-07T08:55:48;12.45;;;10.65;;
2313;SDS011;42279;51.388;7.000;2022-12-07T08:58:16;14.15;;;10.70;;
2313;SDS011;42279;51.388;7.000;2022-12-07T09:00:42;12.27;;;11.00;;
2313;SDS011;42279;51.388;7.000;2022-12-07T09:03:08;13.17;;;10.90;;
2313;SDS011;42279;51.388;7.000;2022-12-07T09:05:34;13.10;;;11.70;;
2313;SDS011;42279;51.388;7.000;2022-12-07T09:08:01;11.70;;;10.50;;
2313;SDS011;42279;51.388;7.000;2022-12-07T09:10:30;12.00;;;10.80;;
2313;SDS011;42279;51.388;7.000;2022-12-07T09:12:56;11.93;;;10.73;;
2313;SDS011;42279;51.388;7.000;2022-12-07T09:15:25;11.93;;;10.70;;
2313;SDS011;42279;51.388;7.000;2022-12-07T09:17:52;12.93;;;11.73;;
2313;SDS011;42279;51.388;7.000;2022-12-07T09:20:18;18.67;;;11.15;;
2313;SDS011;42279;51.388;7.000;2022-12-07T09:22:47;16.77;;;11.50;;
2313;SDS011;42279;51.388;7.000;2022-12-07T09:25:19;12.73;;;11.45;;
2313;SDS011;42279;51.388;7.000;2022-12-07T09:27:45;16.35;;;10.68;;
2313;SDS011;42279;51.388;7.000;2022-12-07T09:30:11;15.57;;;11.10;;
2313;SDS011;42279;51.388;7.000;2022-12-07T09:32:38;14.90;;;12.65;;
2313;SDS011;42279;51.388;7.000;2022-12-07T09:35:04;12.50;;;11.20;;
2313;SDS011;42279;51.388;7.000;2022-12-07T09:37:30;15.50;;;10.83;;
2313;SDS011;42279;51.388;7.000;2022-12-07T09:40:00;11.60;;;10.10;;
2313;SDS011;42279;51.388;7.000;2022-12-07T09:44:52;12.38;;;9.90;;
2313;SDS011;42279;51.388;7.000;2022-12-07T09:47:18;11.10;;;9.27;;
2313;SDS011;42279;51.388;7.000;2022-12-07T09:49:44;10.20;;;8.33;;
2313;SDS011;42279;51.388;7.000;2022-12-07T09:52:27;10.63;;;8.80;;
2313;SDS011;42279;51.388;7.000;2022-12-07T09:54:53;12.30;;;9.07;;
2313;SDS011;42279;51.388;7.000;2022-12-07T09:57:27;12.82;;;8.70;;
2313;SDS011;42279;51.388;7.000;2022-12-07T09:59:55;12.48;;;10.00;;
2313;SDS011;42279;51.388;7.000;2022-12-07T10:02:25;9.63;;;7.97;;
2313;SDS011;42279;51.388;7.000;2022-12-07T10:04:53;10.90;;;8.55;;
2313;SDS011;42279;51.388;7.000;2022-12-07T10:07:19;12.02;;;8.82;;
2313;SDS011;42279;51.388;7.000;2022-12-07T10:09:45;10.23;;;8.47;;
2313;SDS011;42279;51.388;7.000;2022-12-07T10:12:17;8.33;;;7.57;;
2313;SDS011;42279;51.388;7.000;2022-12-07T10:14:58;12.80;;;8.05;;
2313;SDS011;42279;51.388;7.000;2022-12-07T10:17:37;8.67;;;7.80;;
2313;SDS011;42279;51.388;7.000;2022-12-07T10:22:37;8.00;;;7.30;;
2313;SDS011;42279;51.388;7.000;2022-12-07T10:25:18;9.90;;;7.80;;
2313;SDS011;42279;51.388;7.000;2022-12-07T10:27:45;9.67;;;7.20;;
2313;SDS011;42279;51.388;7.000;2022-12-07T10:30:28;7.60;;;7.00;;
2313;SDS011;42279;51.388;7.000;2022-12-07T10:32:54;8.07;;;7.17;;
2313;SDS011;42279;51.388;7.000;2022-12-07T10:35:27;6.60;;;6.00;;
2313;SDS011;42279;51.388;7.000;2022-12-07T10:37:58;6.70;;;6.20;;
2313;SDS011;42279;51.388;7.000;2022-12-07T10:40:34;6.60;;;6.00;;
2313;SDS011;42279;51.388;7.000;2022-12-07T10:43:17;6.40;;;5.93;;
2313;SDS011;42279;51.388;7.000;2022-12-07T10:48:22;6.13;;;5.45;;
2313;SDS011;42279;51.388;7.000;2022-12-07T11:00:56;5.77;;;5.37;;
2313;SDS011;42279;51.388;7.000;2022-12-07T11:11:17;5.28;;;4.85;;
2313;SDS011;42279;51.388;7.000;2022-12-07T11:14:03;5.83;;;5.07;;
2313;SDS011;42279;51.388;7.000;2022-12-07T11:19:32;6.13;;;5.20;;
2313;SDS011;42279;51.388;7.000;2022-12-07T11:22:13;9.40;;;5.37;;
2313;SDS011;42279;51.388;7.000;2022-12-07T11:24:42;6.10;;;5.70;;
2313;SDS011;42279;51.388;7.000;2022-12-07T11:27:16;6.50;;;5.75;;
2313;SDS011;42279;51.388;7.000;2022-12-07T11:29:47;14.10;;;7.45;;
2313;SDS011;42279;51.388;7.000;2022-12-07T11:34:57;8.27;;;6.83;;
2313;SDS011;42279;51.388;7.000;2022-12-07T11:37:30;8.87;;;6.77;;
2313;SDS011;42279;51.388;7.000;2022-12-07T11:40:02;6.53;;;6.03;;
2313;SDS011;42279;51.388;7.000;2022-12-07T11:42:30;9.10;;;7.30;;
2313;SDS011;42279;51.388;7.000;2022-12-07T11:45:02;8.30;;;7.00;;
2313;SDS011;42279;51.388;7.000;2022-12-07T11:50:24;6.53;;;6.03;;
2313;SDS011;42279;51.388;7.000;2022-12-07T11:58:04;9.60;;;6.32;;
2313;SDS011;42279;51.388;7.000;2022-12-07T12:00:34;6.90;;;6.30;;
2313;SDS011;42279;51.388;7.000;2022-12-07T12:03:04;7.50;;;4.65;;
2313;SDS011;42279;51.388;7.000;2022-12-07T12:05:35;5.10;;;4.70;;
2313;SDS011;42279;51.388;7.000;2022-12-07T12:18:53;10.40;;;4.20;;
2313;SDS011;42279;51.388;7.000;2022-12-07T12:21:26;9.40;;;7.30;;
2313;SDS011;42279;51.388;7.000;2022-12-07T12:24:04;3.63;;;3.42;;
2313;SDS011;42279;51.388;7.000;2022-12-07T12:26:38;3.87;;;3.60;;
2313;SDS011;42279;51.388;7.000;2022-12-07T12:29:17;4.00;;;3.67;;
2313;SDS011;42279;51.388;7.000;2022-12-07T12:31:46;12.47;;;4.07;;
2313;SDS011;42279;51.388;7.000;2022-12-07T12:37:00;3.60;;;3.30;;
2313;SDS011;42279;51.388;7.000;2022-12-07T12:39:26;10.10;;;3.70;;
2313;SDS011;42279;51.388;7.000;2022-12-07T12:41:56;3.72;;;3.38;;
2313;SDS011;42279;51.388;7.000;2022-12-07T12:46:52;4.22;;;4.00;;
2313;SDS011;42279;51.388;7.000;2022-12-07T12:51:57;9.85;;;4.03;;
2313;SDS011;42279;51.388;7.000;2022-12-07T12:54:24;7.15;;;3.75;;
2313;SDS011;42279;51.388;7.000;2022-12-07T12:59:41;4.13;;;3.57;;
2313;SDS011;42279;51.388;7.000;2022-12-07T13:15:44;3.67;;;3.37;;
2313;SDS011;42279;51.388;7.000;2022-12-07T13:33:51;2.93;;;2.67;;
2313;SDS011;42279;51.388;7.000;2022-12-07T13:36:19;3.30;;;2.93;;
2313;SDS011;42279;51.388;7.000;2022-12-07T13:38:53;3.50;;;3.20;;
2313;SDS011;42279;51.388;7.000;2022-12-07T13:41:24;5.07;;;3.10;;
2313;SDS011;42279;51.388;7.000;2022-12-07T13:44:01;4.37;;;2.70;;
2313;SDS011;42279;51.388;7.000;2022-12-07T13:46:44;3.87;;;2.60;;
2313;SDS011;42279;51.388;7.000;2022-12-07T13:49:15;4.07;;;2.90;;
2313;SDS011;42279;51.388;7.000;2022-12-07T13:51:42;2.22;;;2.15;;
2313;SDS011;42279;51.388;7.000;2022-12-07T13:54:09;3.13;;;2.80;;
2313;SDS011;42279;51.388;7.000;2022-12-07T13:56:36;4.67;;;2.00;;
2313;SDS011;42279;51.388;7.000;2022-12-07T13:59:05;5.20;;;2.20;;
2313;SDS011;42279;51.388;7.000;2022-12-07T14:01:31;5.57;;;2.97;;
2313;SDS011;42279;51.388;7.000;2022-12-07T14:04:18;5.23;;;2.60;;
2313;SDS011;42279;51.388;7.000;2022-12-07T14:06:49;4.60;;;4.13;;
2313;SDS011;42279;51.388;7.000;2022-12-07T14:11:41;3.97;;;3.67;;
2313;SDS011;42279;51.388;7.000;2022-12-07T14:14:10;3.83;;;3.63;;
2313;SDS011;42279;51.388;7.000;2022-12-07T14:16:39;2.65;;;2.63;;
2313;SDS011;42279;51.388;7.000;2022-12-07T14:22:37;3.90;;;3.40;;
2313;SDS011;42279;51.388;7.000;2022-12-07T14:24:42;4.75;;;3.33;;
2313;SDS011;42279;51.388;7.000;2022-12-07T14:27:21;3.70;;;2.90;;
2313;SDS011;42279;51.388;7.000;2022-12-07T14:29:50;8.97;;;3.20;;
2313;SDS011;42279;51.388;7.000;2022-12-07T14:32:20;6.53;;;3.42;;
2313;SDS011;42279;51.388;7.000;2022-12-07T14:34:59;7.30;;;4.13;;
2313;SDS011;42279;51.388;7.000;2022-12-07T14:37:26;6.07;;;4.20;;
2313;SDS011;42279;51.388;7.000;2022-12-07T14:39:52;3.78;;;3.20;;
2313;SDS011;42279;51.388;7.000;2022-12-07T14:42:20;3.38;;;3.10;;
2313;SDS011;42279;51.388;7.000;2022-12-07T14:44:48;8.63;;;3.30;;
2313;SDS011;42279;51.388;7.000;2022-12-07T14:47:14;6.82;;;3.75;;
2313;SDS011;42279;51.388;7.000;2022-12-07T14:49:43;8.57;;;4.20;;
2313;SDS011;42279;51.388;7.000;2022-12-07T14:52:13;5.07;;;3.97;;
2313;SDS011;42279;51.388;7.000;2022-12-07T14:54:42;10.52;;;4.45;;
2313;SDS011;42279;51.388;7.000;2022-12-07T14:57:09;5.15;;;3.90;;
2313;SDS011;42279;51.388;7.000;2022-12-07T14:59:36;4.68;;;4.10;;
2313;SDS011;42279;51.388;7.000;2022-12-07T15:02:02;7.90;;;4.50;;
2313;SDS011;42279;51.388;7.000;2022-12-07T15:04:28;6.13;;;5.70;;
2313;SDS011;42279;51.388;7.000;2022-12-07T15:06:58;9.65;;;6.10;;
2313;SDS011;42279;51.388;7.000;2022-12-07T15:09:25;7.43;;;6.93;;
2313;SDS011;42279;51.388;7.000;2022-12-07T15:11:51;7.28;;;6.68;;
2313;SDS011;42279;51.388;7.000;2022-12-07T15:14:17;7.05;;;6.63;;
2313;SDS011;42279;51.388;7.000;2022-12-07T15:16:43;7.05;;;6.35;;
2313;SDS011;42279;51.388;7.000;2022-12-07T15:19:22;7.53;;;6.93;;
2313;SDS011;42279;51.388;7.000;2022-12-07T15:21:54;10.18;;;7.28;;
2313;SDS011;42279;51.388;7.000;2022-12-07T15:24:20;7.85;;;7.10;;
2313;SDS011;42279;51.388;7.000;2022-12-07T15:26:48;10.13;;;7.35;;
2313;SDS011;42279;51.388;7.000;2022-12-07T15:29:14;10.63;;;8.55;;
2313;SDS011;42279;51.388;7.000;2022-12-07T15:31:45;9.50;;;7.90;;
2313;SDS011;42279;51.388;7.000;2022-12-07T15:34:11;7.30;;;6.55;;
2313;SDS011;42279;51.388;7.000;2022-12-07T15:36:40;5.93;;;4.85;;
2313;SDS011;42279;51.388;7.000;2022-12-07T15:39:12;6.35;;;5.68;;
2313;SDS011;42279;51.388;7.000;2022-12-07T15:41:38;5.38;;;4.95;;
2313;SDS011;42279;51.388;7.000;2022-12-07T15:44:04;10.48;;;6.45;;
2313;SDS011;42279;51.388;7.000;2022-12-07T15:46:51;7.35;;;6.85;;
2313;SDS011;42279;51.388;7.000;2022-12-07T15:49:29;6.90;;;6.03;;
2313;SDS011;42279;51.388;7.000;2022-12-07T15:51:56;7.03;;;5.65;;
2313;SDS011;42279;51.388;7.000;2022-12-07T15:54:25;9.02;;;5.22;;
2313;SDS011;42279;51.388;7.000;2022-12-07T15:56:55;6.32;;;5.93;;
2313;SDS011;42279;51.388;7.000;2022-12-07T15:59:21;6.30;;;5.37;;
2313;SDS011;42279;51.388;7.000;2022-12-07T16:01:47;6.30;;;5.70;;
2313;SDS011;42279;51.388;7.000;2022-12-07T16:04:16;7.80;;;5.95;;
2313;SDS011;42279;51.388;7.000;2022-12-07T16:06:46;8.82;;;5.75;;
2313;SDS011;42279;51.388;7.000;2022-12-07T16:09:12;7.78;;;5.05;;
2313;SDS011;42279;51.388;7.000;2022-12-07T16:11:38;6.63;;;5.97;;
2313;SDS011;42279;51.388;7.000;2022-12-07T16:14:07;6.35;;;5.75;;
2313;SDS011;42279;51.388;7.000;2022-12-07T16:16:33;5.15;;;4.75;;
2313;SDS011;42279;51.388;7.000;2022-12-07T16:18:59;6.60;;;6.10;;
2313;SDS011;42279;51.388;7.000;2022-12-07T16:21:25;6.95;;;5.60;;
2313;SDS011;42279;51.388;7.000;2022-12-07T16:23:51;7.97;;;7.22;;
2313;SDS011;42279;51.388;7.000;2022-12-07T16:26:18;10.45;;;7.78;;
2313;SDS011;42279;51.388;7.000;2022-12-07T16:31:37;7.70;;;7.00;;
2313;SDS011;42279;51.388;7.000;2022-12-07T16:34:03;13.60;;;8.05;;
2313;SDS011;42279;51.388;7.000;2022-12-07T16:36:30;8.10;;;7.30;;
2313;SDS011;42279;51.388;7.000;2022-12-07T16:38:57;7.43;;;6.93;;
2313;SDS011;42279;51.388;7.000;2022-12-07T16:41:23;10.27;;;7.85;;
2313;SDS011;42279;51.388;7.000;2022-12-07T16:43:50;6.07;;;5.57;;
2313;SDS011;42279;51.388;7.000;2022-12-07T16:46:16;12.50;;;7.93;;
2313;SDS011;42279;51.388;7.000;2022-12-07T16:48:42;7.97;;;7.20;;
2313;SDS011;42279;51.388;7.000;2022-12-07T16:51:09;9.63;;;8.15;;
2313;SDS011;42279;51.388;7.000;2022-12-07T16:53:36;8.85;;;6.40;;
2313;SDS011;42279;51.388;7.000;2022-12-07T16:56:03;8.25;;;7.15;;
2313;SDS011;42279;51.388;7.000;2022-12-07T16:58:30;9.52;;;7.60;;
2313;SDS011;42279;51.388;7.000;2022-12-07T17:00:56;10.60;;;7.93;;
2313;SDS011;42279;51.388;7.000;2022-12-07T17:03:22;8.65;;;7.72;;